Time;durP1;ratioP1;P1;durP2;ratioP2;P2;SDS_P1;SDS_P2;PMS_P1;PMS_P2;Temp;Humidity;BMP_temperature;BMP_pressure;BME280_temperature;BME280_humidity;BME280_pressure;Samples;Min_cycle;Max_cycle;Signal;HPM_P1;HPM_P2
2022/01/07 00:01:19;;;;;;;;;;;;;;;0.17;80.66;100366.19;1708172;81;20266;-75
2022/01/07 00:03:44;;;;;;;;;;;;;;;0.01;81.05;100367.96;1700663;83;20190;-75
2022/01/07 00:06:10;;;;;;;;;;;;;;;-0.08;81.75;100364.95;1706196;83;20158;-76
2022/01/07 00:08:36;;;;;;;;;;;;;;;0.01;81.68;100370.09;1700264;83;21175;-80
2022/01/07 00:11:01;;;;;;;;;;;;;;;0.01;81.72;100371.86;1705525;83;20548;-78
2022/01/07 00:13:27;;;;;;;;;;;;;;;0.07;81.36;100375.42;1708202;81;20130;-79
2022/01/07 00:15:54;;;;;;;;;;;;;;;0.15;81.61;100368.04;1704663;83;20126;-83
2022/01/07 00:18:20;;;;;;;;;;;;;;;0.21;81.58;100375.50;1701811;83;20179;-84
2022/01/07 00:20:46;;;;;;;;;;;;;;;0.12;81.58;100369.51;1710550;81;21079;-85
2022/01/07 00:23:11;;;;;;;;;;;;;;;-0.01;81.97;100377.95;1704536;81;20182;-76
2022/01/07 00:25:37;;;;;;;;;;;;;;;0.14;81.72;100374.14;1700531;83;21010;-76
2022/01/07 00:28:03;;;;;;;;;;;;;;;-0.23;83.22;100383.94;1702508;83;20193;-77
2022/01/07 00:30:29;;;;;;;;;;;;;;;0.04;82.58;100378.19;1704503;83;20159;-90
2022/01/07 00:32:55;;;;;;;;;;;;;;;-0.06;82.77;100389.06;1702029;83;21024;-76
2022/01/07 00:35:20;;;;;;;;;;;;;;;0.05;82.55;100392.81;1701996;83;20202;-80
2022/01/07 00:37:46;;;;;;;;;;;;;;;-0.09;83.50;100391.82;1702434;83;20169;-81
2022/01/07 00:40:14;;;;;;;;;;;;;;;0.16;82.28;100397.82;1707850;83;20200;-76
2022/01/07 00:42:40;;;;;;;;;;;;;;;0.10;83.02;100405.94;1704148;81;20209;-82
2022/01/07 00:45:06;;;;;;;;;;;;;;;0.12;82.90;100400.67;1695475;83;21847;-75
2022/01/07 00:47:32;;;;;;;;;;;;;;;0.10;83.49;100394.73;1678863;84;20202;-79
2022/01/07 00:50:02;;;;;;;;;;;;;;;0.32;82.01;100398.28;1672484;83;20172;-75
2022/01/07 00:52:25;;;;;;;;;;;;;;;0.21;82.40;100396.27;1673972;84;20175;-86
2022/01/07 00:54:50;;;;;;;;;;;;;;;-0.07;83.49;100400.35;1671368;84;21156;-77
2022/01/07 00:57:16;;;;;;;;;;;;;;;-0.25;84.46;100398.30;1674050;84;21337;-79
2022/01/07 00:59:44;;;;;;;;;;;;;;;0.10;83.29;100404.64;1671233;84;20490;-76
2022/01/07 01:02:09;;;;;;;;;;;;;;;0.12;83.00;100401.97;1675659;83;20153;-76
2022/01/07 01:04:35;;;;;;;;;;;;;;;0.38;82.08;100397.12;1674376;84;20618;-75
2022/01/07 01:07:01;;;;;;;;;;;;;;;0.21;82.05;100400.17;1673638;84;20286;-75
2022/01/07 01:09:26;;;;;;;;;;;;;;;0.25;81.91;100401.69;1669617;84;21822;-78
2022/01/07 01:11:52;;;;;;;;;;;;;;;-0.47;84.62;100405.03;1675632;84;20119;-81
2022/01/07 01:14:17;;;;;;;;;;;;;;;0.17;82.73;100402.10;1673032;84;20164;-83
2022/01/07 01:16:44;;;;;;;;;;;;;;;0.17;82.45;100413.79;1675799;84;20236;-94
2022/01/07 01:19:10;;;;;;;;;;;;;;;0.27;82.00;100407.63;1672423;84;20218;-75
2022/01/07 01:21:36;;;;;;;;;;;;;;;-0.10;83.03;100405.70;1673888;84;22242;-83
2022/01/07 01:24:02;;;;;;;;;;;;;;;-0.01;83.05;100404.39;1672965;84;20207;-77
2022/01/07 01:26:27;;;;;;;;;;;;;;;0.05;83.12;100400.61;1668430;84;20349;-76
2022/01/07 01:28:53;;;;;;;;;;;;;;;0.11;82.38;100405.47;1672373;84;20680;-76
2022/01/07 01:31:19;;;;;;;;;;;;;;;0.16;82.20;100406.08;1674322;84;20167;-80
2022/01/07 01:33:44;;;;;;;;;;;;;;;0.11;82.31;100405.47;1667832;84;21258;-77
2022/01/07 01:36:10;;;;;;;;;;;;;;;0.11;82.36;100405.47;1675781;83;20270;-76
2022/01/07 01:38:36;;;;;;;;;;;;;;;0.12;82.47;100404.56;1671312;84;20130;-78
2022/01/07 01:41:02;;;;;;;;;;;;;;;-0.23;83.66;100412.48;1672145;84;20171;-76
2022/01/07 01:43:28;;;;;;;;;;;;;;;-0.24;83.83;100409.50;1668415;84;20237;-88
2022/01/07 01:45:53;;;;;;;;;;;;;;;-0.01;82.80;100414.30;1681265;83;21959;-80
2022/01/07 01:48:20;;;;;;;;;;;;;;;0.13;82.41;100419.23;1705560;81;20150;-76
2022/01/07 01:50:47;;;;;;;;;;;;;;;-0.32;83.41;100411.66;1701379;83;20523;-75
2022/01/07 01:53:12;;;;;;;;;;;;;;;-0.31;83.63;100409.43;1703788;83;20246;-77
2022/01/07 01:55:38;;;;;;;;;;;;;;;-0.17;83.19;100401.78;1702000;81;20786;-79
2022/01/07 01:58:05;;;;;;;;;;;;;;;-0.35;83.84;100405.34;1707175;81;21132;-75
2022/01/07 02:00:30;;;;;;;;;;;;;;;-0.52;84.52;100416.11;1703277;81;20217;-78
2022/01/07 02:02:56;;;;;;;;;;;;;;;-0.30;83.92;100422.80;1707019;82;20159;-77
2022/01/07 02:05:22;;;;;;;;;;;;;;;-0.69;84.55;100425.22;1707840;81;20108;-79
2022/01/07 02:07:48;;;;;;;;;;;;;;;-0.41;84.11;100420.75;1700613;81;20223;-85
2022/01/07 02:10:14;;;;;;;;;;;;;;;-0.43;84.10;100426.48;1695341;83;21109;-76
2022/01/07 02:12:40;;;;;;;;;;;;;;;-0.41;83.72;100428.07;1705728;82;20127;-84
2022/01/07 02:15:06;;;;;;;;;;;;;;;-0.41;84.21;100430.66;1700908;83;20213;-74
2022/01/07 02:17:32;;;;;;;;;;;;;;;-0.25;83.62;100440.25;1709447;81;20181;-78
2022/01/07 02:19:57;;;;;;;;;;;;;;;-0.25;83.10;100437.66;1707897;81;20348;-75
2022/01/07 02:22:26;;;;;;;;;;;;;;;-0.58;84.25;100452.73;1699838;83;21150;-84
2022/01/07 02:24:52;;;;;;;;;;;;;;;-0.59;84.37;100449.75;1708167;83;20189;-78
2022/01/07 02:27:17;;;;;;;;;;;;;;;-0.61;83.81;100444.64;1707825;83;20241;-75
2022/01/07 02:29:45;;;;;;;;;;;;;;;-0.68;83.87;100445.03;1702819;81;20627;-75
2022/01/07 02:32:11;;;;;;;;;;;;;;;-0.78;84.63;100436.44;1704214;83;20164;-74
2022/01/07 02:34:36;;;;;;;;;;;;;;;-0.63;83.78;100432.69;1706611;83;21161;-75
2022/01/07 02:37:02;;;;;;;;;;;;;;;-0.73;84.15;100444.82;1705192;83;20536;-79
2022/01/07 02:39:28;;;;;;;;;;;;;;;-0.70;83.81;100442.98;1698476;83;20297;-88
2022/01/07 02:41:53;;;;;;;;;;;;;;;-0.71;83.88;100433.08;1707764;83;20187;-82
2022/01/07 02:44:19;;;;;;;;;;;;;;;-0.38;82.52;100436.99;1705614;81;20120;-79
2022/01/07 02:46:45;;;;;;;;;;;;;;;-0.53;82.84;100439.54;1704174;82;21193;-75
2022/01/07 02:49:16;;;;;;;;;;;;;;;-0.49;82.15;100450.98;1702856;83;20186;-77
2022/01/07 02:51:41;;;;;;;;;;;;;;;-0.82;83.24;100451.76;1700338;83;20175;-76
2022/01/07 02:54:07;;;;;;;;;;;;;;;-0.79;83.46;100445.12;1706830;83;20544;-81
2022/01/07 02:56:33;;;;;;;;;;;;;;;-0.61;82.83;100450.30;1701895;83;20142;-83
2022/01/07 02:58:59;;;;;;;;;;;;;;;-0.61;82.97;100455.02;1702303;83;21061;-77
2022/01/07 03:01:25;;;;;;;;;;;;;;;-0.88;83.45;100461.14;1698003;83;20819;-81
2022/01/07 03:03:50;;;;;;;;;;;;;;;-0.53;82.31;100441.66;1700554;81;20183;-75
2022/01/07 03:06:16;;;;;;;;;;;;;;;-0.88;83.03;100448.64;1701979;83;20261;-76
2022/01/07 03:08:47;;;;;;;;;;;;;;;-0.62;82.68;100453.80;1702973;81;20574;-80
2022/01/07 03:11:12;;;;;;;;;;;;;;;-0.62;82.15;100449.91;1708202;83;21348;-77
2022/01/07 03:13:38;;;;;;;;;;;;;;;-0.51;81.63;100447.63;1707677;82;20530;-92
2022/01/07 03:16:04;;;;;;;;;;;;;;;-0.60;81.66;100457.17;1701583;83;20467;-77
2022/01/07 03:18:30;;;;;;;;;;;;;;;-0.64;81.98;100449.16;1707435;81;20224;-78
2022/01/07 03:20:57;;;;;;;;;;;;;;;-0.54;81.46;100449.09;1705819;83;20144;-76
2022/01/07 03:23:23;;;;;;;;;;;;;;;-0.41;80.40;100451.89;1704543;81;20152;-78
2022/01/07 03:25:48;;;;;;;;;;;;;;;-0.61;81.16;100467.16;1704583;83;21181;-87
2022/01/07 03:28:14;;;;;;;;;;;;;;;-0.07;79.80;100461.83;1702804;83;20154;-83
2022/01/07 03:30:40;;;;;;;;;;;;;;;-0.29;80.14;100462.11;1699474;83;20181;-77
2022/01/07 03:33:06;;;;;;;;;;;;;;;-0.45;80.80;100459.44;1704520;83;21492;-90
2022/01/07 03:35:31;;;;;;;;;;;;;;;-0.76;81.04;100459.23;1710828;81;22046;-77
2022/01/07 03:37:57;;;;;;;;;;;;;;;-0.65;81.36;100455.25;1703726;83;20189;-77
2022/01/07 03:40:22;;;;;;;;;;;;;;;-0.80;81.39;100457.70;1705675;83;20396;-76
2022/01/07 03:42:49;;;;;;;;;;;;;;;-0.87;81.81;100469.30;1706048;83;20151;-77
2022/01/07 03:45:15;;;;;;;;;;;;;;;-0.90;81.89;100469.45;1702479;83;20491;-83
2022/01/07 03:47:40;;;;;;;;;;;;;;;-1.17;82.88;100471.14;1705734;83;21139;-79
2022/01/07 03:50:07;;;;;;;;;;;;;;;-1.10;82.95;100468.66;1700042;83;20130;-79
2022/01/07 03:52:33;;;;;;;;;;;;;;;-1.02;82.75;100464.86;1700012;83;20234;-76
2022/01/07 03:54:59;;;;;;;;;;;;;;;-0.89;82.04;100462.51;1713834;82;20848;-84
2022/01/07 03:57:24;;;;;;;;;;;;;;;-1.27;83.03;100455.67;1707505;83;20132;-81
2022/01/07 03:59:50;;;;;;;;;;;;;;;-0.99;82.64;100467.31;1707095;82;21169;-76
2022/01/07 04:02:18;;;;;;;;;;;;;;;-0.96;82.55;100469.75;1711654;83;20170;-81
2022/01/07 04:04:44;;;;;;;;;;;;;;;-0.93;82.22;100474.78;1705635;81;20183;-78
2022/01/07 04:07:10;;;;;;;;;;;;;;;-0.84;82.01;100474.34;1710047;81;20462;-86
2022/01/07 04:09:35;;;;;;;;;;;;;;;-0.77;81.49;100480.88;1705264;82;20152;-86
2022/01/07 04:12:01;;;;;;;;;;;;;;;-0.67;81.36;100480.43;1710614;81;21177;-76
2022/01/07 04:14:27;;;;;;;;;;;;;;;-0.96;81.74;100477.53;1707849;82;20194;-80
2022/01/07 04:16:53;;;;;;;;;;;;;;;-1.05;81.94;100480.56;1701785;82;20228;-77
2022/01/07 04:19:19;;;;;;;;;;;;;;;-0.91;81.58;100479.43;1711726;83;20183;-82
2022/01/07 04:21:46;;;;;;;;;;;;;;;-1.01;82.24;100482.07;1704248;83;20899;-81
2022/01/07 04:24:12;;;;;;;;;;;;;;;-0.68;81.45;100478.74;1709774;81;20183;-81
2022/01/07 04:26:37;;;;;;;;;;;;;;;-0.42;79.75;100482.62;1699050;83;20146;-80
2022/01/07 04:29:03;;;;;;;;;;;;;;;-0.92;80.70;100485.52;1707364;81;20463;-81
2022/01/07 04:31:28;;;;;;;;;;;;;;;-0.51;80.05;100477.47;1706855;83;20448;-86
2022/01/07 04:33:54;;;;;;;;;;;;;;;-0.67;80.54;100470.06;1700813;83;20205;-77
2022/01/07 04:36:20;;;;;;;;;;;;;;;-0.75;80.99;100468.67;1707758;83;21102;-78
2022/01/07 04:38:46;;;;;;;;;;;;;;;-0.93;81.45;100463.13;1711135;83;20156;-91
2022/01/07 04:41:12;;;;;;;;;;;;;;;-0.72;80.29;100465.92;1704703;82;20608;-76
2022/01/07 04:43:38;;;;;;;;;;;;;;;-0.68;80.26;100467.07;1713287;82;20179;-84
2022/01/07 04:46:04;;;;;;;;;;;;;;;-0.84;80.30;100458.78;1704507;81;20217;-77
2022/01/07 04:48:30;;;;;;;;;;;;;;;-0.55;79.93;100457.77;1707284;82;21099;-84
2022/01/07 04:50:56;;;;;;;;;;;;;;;-0.51;79.21;100461.91;1710022;83;20739;-76
2022/01/07 04:53:21;;;;;;;;;;;;;;;-0.41;79.36;100463.09;1706977;81;20471;-77
2022/01/07 04:55:47;;;;;;;;;;;;;;;-0.64;79.48;100460.36;1705966;83;20137;-79
2022/01/07 04:58:13;;;;;;;;;;;;;;;-0.46;78.74;100452.12;1706922;82;20711;-76
2022/01/07 05:00:40;;;;;;;;;;;;;;;-0.59;79.17;100454.94;1711149;83;21020;-81
2022/01/07 05:03:06;;;;;;;;;;;;;;;-0.66;79.11;100448.41;1706684;83;20114;-81
2022/01/07 05:05:31;;;;;;;;;;;;;;;-0.62;79.28;100444.72;1708764;82;20328;-76
2022/01/07 05:07:57;;;;;;;;;;;;;;;-0.61;79.48;100450.30;1707895;83;20547;-77
2022/01/07 05:10:24;;;;;;;;;;;;;;;-0.60;79.27;100442.91;1697157;83;20214;-79
2022/01/07 05:12:50;;;;;;;;;;;;;;;-0.63;79.28;100445.66;1707817;82;21070;-77
2022/01/07 05:15:16;;;;;;;;;;;;;;;-0.72;79.12;100437.41;1707419;81;20838;-77
2022/01/07 05:17:42;;;;;;;;;;;;;;;-0.53;79.16;100440.37;1705421;83;20209;-78
2022/01/07 05:20:09;;;;;;;;;;;;;;;-0.74;79.34;100437.95;1699274;83;20205;-79
2022/01/07 05:22:34;;;;;;;;;;;;;;;-0.48;79.11;100446.62;1707335;82;20188;-79
2022/01/07 05:25:00;;;;;;;;;;;;;;;-0.43;78.75;100436.40;1706645;83;21175;-77
2022/01/07 05:27:26;;;;;;;;;;;;;;;-0.52;78.79;100430.38;1703043;83;20285;-76
2022/01/07 05:29:51;;;;;;;;;;;;;;;-0.53;78.68;100429.99;1707667;83;20198;-84
2022/01/07 05:32:17;;;;;;;;;;;;;;;-0.45;78.46;100427.87;1706569;83;20705;-83
2022/01/07 05:34:43;;;;;;;;;;;;;;;-0.09;77.87;100422.14;1711952;83;20148;-83
2022/01/07 05:37:10;;;;;;;;;;;;;;;0.02;77.53;100427.59;1716088;82;21064;-77
2022/01/07 05:39:36;;;;;;;;;;;;;;;0.12;76.44;100424.86;1707983;82;20132;-77
2022/01/07 05:42:02;;;;;;;;;;;;;;;0.30;76.17;100433.44;1706933;81;20126;-81
2022/01/07 05:44:28;;;;;;;;;;;;;;;0.25;75.67;100436.75;1707852;82;20675;-77
2022/01/07 05:46:55;;;;;;;;;;;;;;;0.31;75.65;100440.75;1700439;82;20403;-78
2022/01/07 05:49:20;;;;;;;;;;;;;;;0.23;75.53;100445.06;1710025;82;21103;-90
2022/01/07 05:51:46;;;;;;;;;;;;;;;0.37;75.28;100446.09;1710934;83;20596;-86
2022/01/07 05:54:11;;;;;;;;;;;;;;;0.40;75.12;100444.16;1703887;83;20166;-84
2022/01/07 05:56:37;;;;;;;;;;;;;;;0.43;74.94;100450.95;1714713;81;20147;-80
2022/01/07 05:59:03;;;;;;;;;;;;;;;0.53;74.30;100454.27;1701440;82;20214;-79
2022/01/07 06:01:29;;;;;;;;;;;;;;;0.57;74.42;100449.73;1701241;82;21136;-85
2022/01/07 06:03:54;;;;;;;;;;;;;;;0.52;74.12;100452.58;1703055;81;20218;-78
2022/01/07 06:06:20;;;;;;;;;;;;;;;0.47;74.10;100442.08;1704981;83;20186;-79
2022/01/07 06:08:45;;;;;;;;;;;;;;;0.44;74.50;100456.53;1703359;83;21344;-80
2022/01/07 06:11:11;;;;;;;;;;;;;;;0.42;74.14;100453.16;1707188;81;20127;-91
2022/01/07 06:13:37;;;;;;;;;;;;;;;0.34;73.52;100459.63;1708326;82;21154;-80
2022/01/07 06:16:03;;;;;;;;;;;;;;;-0.08;74.64;100449.31;1709481;83;20363;-77
2022/01/07 06:18:28;;;;;;;;;;;;;;;-0.15;75.54;100457.03;1708564;83;20180;-83
2022/01/07 06:20:54;;;;;;;;;;;;;;;0.01;74.83;100457.06;1705955;81;20146;-77
2022/01/07 06:23:20;;;;;;;;;;;;;;;-0.46;75.93;100458.61;1700288;82;21001;-84
2022/01/07 06:25:49;;;;;;;;;;;;;;;-0.46;76.29;100457.31;1703298;83;22072;-77
2022/01/07 06:28:13;;;;;;;;;;;;;;;-0.15;74.95;100462.22;1705573;81;20167;-80
2022/01/07 06:30:39;;;;;;;;;;;;;;;-0.19;75.68;100465.89;1709891;81;20507;-83
2022/01/07 06:33:04;;;;;;;;;;;;;;;-0.47;75.71;100459.52;1710414;82;20160;-76
2022/01/07 06:35:30;;;;;;;;;;;;;;;-0.32;75.69;100462.27;1711171;81;20429;-83
2022/01/07 06:37:55;;;;;;;;;;;;;;;-0.26;75.38;100467.97;1714505;83;21183;-77
2022/01/07 06:40:21;;;;;;;;;;;;;;;0.03;75.05;100460.41;1702133;81;20180;-80
2022/01/07 06:42:47;;;;;;;;;;;;;;;0.09;74.83;100459.25;1701280;83;20308;-86
2022/01/07 06:45:12;;;;;;;;;;;;;;;0.04;74.18;100461.27;1707977;83;20151;-82
2022/01/07 06:47:38;;;;;;;;;;;;;;;0.07;74.02;100465.83;1702530;83;20221;-77
2022/01/07 06:50:04;;;;;;;;;;;;;;;0.12;74.15;100464.28;1701021;83;21065;-78
2022/01/07 06:52:30;;;;;;;;;;;;;;;0.21;74.09;100466.39;1702843;81;20157;-82
2022/01/07 06:54:56;;;;;;;;;;;;;;;0.11;74.66;100469.09;1701720;83;21341;-81
2022/01/07 06:57:22;;;;;;;;;;;;;;;0.14;73.79;100468.92;1699230;83;20179;-76
2022/01/07 06:59:47;;;;;;;;;;;;;;;-0.08;74.67;100470.09;1711866;81;20104;-77
2022/01/07 07:02:13;;;;;;;;;;;;;;;0.13;75.05;100478.95;1699922;83;21312;-79
2022/01/07 07:04:39;;;;;;;;;;;;;;;0.23;74.57;100476.23;1701399;83;20317;-82
2022/01/07 07:07:05;;;;;;;;;;;;;;;0.04;75.71;100480.73;1695605;83;20247;-76
2022/01/07 07:09:31;;;;;;;;;;;;;;;0.10;75.73;100476.52;1699782;83;20262;-78
2022/01/07 07:11:57;;;;;;;;;;;;;;;0.17;74.72;100480.45;1705781;81;20119;-85
2022/01/07 07:14:22;;;;;;;;;;;;;;;0.09;75.03;100476.13;1704838;83;21195;-80
2022/01/07 07:16:48;;;;;;;;;;;;;;;0.05;75.59;100474.61;1700199;83;20222;-77
2022/01/07 07:19:13;;;;;;;;;;;;;;;0.10;75.58;100475.22;1704041;83;20663;-84
2022/01/07 07:21:39;;;;;;;;;;;;;;;0.15;75.44;100470.14;1700282;81;20791;-84
2022/01/07 07:24:06;;;;;;;;;;;;;;;0.58;74.51;100467.00;1702795;81;20194;-76
2022/01/07 07:26:31;;;;;;;;;;;;;;;0.72;74.18;100463.64;1707576;83;21085;-77
2022/01/07 07:28:57;;;;;;;;;;;;;;;0.76;73.42;100469.50;1705783;83;20602;-76
2022/01/07 07:31:22;;;;;;;;;;;;;;;0.94;73.10;100455.47;1706851;83;20474;-75
2022/01/07 07:36:27;;;;;;;;;;;;;;;0.63;73.68;100454.59;1707727;83;20172;-75
2022/01/07 07:38:57;;;;;;;;;;;;;;;0.47;74.43;100456.38;1699788;81;21209;-79
2022/01/07 07:41:23;;;;;;;;;;;;;;;0.40;74.66;100454.55;1703181;83;20165;-76
2022/01/07 07:43:49;;;;;;;;;;;;;;;0.43;75.45;100457.45;1707951;81;20219;-86
2022/01/07 07:46:16;;;;;;;;;;;;;;;0.67;74.62;100450.08;1711054;81;20844;-81
2022/01/07 07:48:42;;;;;;;;;;;;;;;0.60;74.82;100458.66;1698693;83;20150;-89
2022/01/07 07:51:08;;;;;;;;;;;;;;;0.56;75.54;100459.77;1695443;83;21249;-76
2022/01/07 07:53:33;;;;;;;;;;;;;;;0.61;75.24;100462.11;1693774;83;20643;-76
2022/01/07 07:55:59;;;;;;;;;;;;;;;0.08;77.31;100467.95;1698297;83;20206;-80
2022/01/07 07:58:25;;;;;;;;;;;;;;;-0.02;77.77;100461.98;1697990;83;20535;-77
2022/01/07 08:00:50;;;;;;;;;;;;;;;0.04;78.44;100465.16;1695488;82;20328;-81
2022/01/07 08:03:16;;;;;;;;;;;;;;;0.08;78.12;100466.66;1694348;83;21034;-77
2022/01/07 08:05:42;;;;;;;;;;;;;;;0.05;79.09;100457.73;1695404;83;20311;-75
2022/01/07 08:08:07;;;;;;;;;;;;;;;0.27;78.13;100462.17;1695360;83;21514;-75
2022/01/07 08:10:33;;;;;;;;;;;;;;;0.59;77.55;100454.40;1670870;84;20480;-75
2022/01/07 08:18:20;;;;;;;;;;;;;;;1.29;75.52;100453.93;1694594;83;20664;-76
2022/01/07 08:20:46;;;;;;;;;;;;;;;1.40;74.69;100460.64;1694594;83;20144;-81
2022/01/07 08:23:11;;;;;;;;;;;;;;;1.64;74.95;100458.81;1695043;84;20233;-75
2022/01/07 08:25:37;;;;;;;;;;;;;;;1.83;73.82;100457.24;1697813;83;20233;-81
2022/01/07 08:28:04;;;;;;;;;;;;;;;1.83;73.38;100455.94;1695602;83;21075;-80
2022/01/07 08:30:37;;;;;;;;;;;;;;;1.35;73.80;100469.19;1696337;83;20450;-77
2022/01/07 08:35:42;;;;;;;;;;;;;;;1.86;73.19;100464.05;1697761;83;20212;-80
2022/01/07 08:38:07;;;;;;;;;;;;;;;1.88;73.28;100464.78;1698548;83;20154;-77
2022/01/07 08:40:33;;;;;;;;;;;;;;;2.07;72.81;100460.14;1698284;83;21261;-78
2022/01/07 08:42:59;;;;;;;;;;;;;;;2.15;72.42;100460.50;1696631;83;20198;-79
2022/01/07 08:45:25;;;;;;;;;;;;;;;2.30;72.01;100456.56;1694250;83;20186;-75
2022/01/07 08:47:51;;;;;;;;;;;;;;;2.31;71.80;100457.77;1694484;83;20163;-76
2022/01/07 08:50:17;;;;;;;;;;;;;;;2.67;71.00;100467.29;1697499;83;20146;-78
2022/01/07 08:52:42;;;;;;;;;;;;;;;2.25;71.57;100465.14;1701633;83;21218;-83
2022/01/07 08:55:08;;;;;;;;;;;;;;;2.38;71.40;100467.37;1699580;81;20532;-78
2022/01/07 08:57:34;;;;;;;;;;;;;;;2.42;71.26;100468.83;1700629;83;20214;-76
2022/01/07 09:00:00;;;;;;;;;;;;;;;2.45;71.46;100471.72;1701686;83;20459;-75
2022/01/07 09:02:25;;;;;;;;;;;;;;;2.53;70.48;100477.76;1704073;81;20197;-83
2022/01/07 09:04:51;;;;;;;;;;;;;;;2.55;71.00;100480.66;1704281;83;21130;-78
2022/01/07 09:07:17;;;;;;;;;;;;;;;2.33;71.19;100485.04;1701240;81;20250;-80
2022/01/07 09:09:42;;;;;;;;;;;;;;;2.49;71.11;100481.86;1703493;83;20185;-76
2022/01/07 09:12:09;;;;;;;;;;;;;;;2.42;70.77;100488.37;1706930;83;20427;-76
2022/01/07 09:14:35;;;;;;;;;;;;;;;2.54;70.69;100481.58;1701940;83;20163;-79
2022/01/07 09:17:00;;;;;;;;;;;;;;;2.90;70.50;100480.16;1706056;82;21886;-78
2022/01/07 09:19:27;;;;;;;;;;;;;;;2.97;69.82;100480.16;1705191;83;20505;-77
2022/01/07 09:21:55;;;;;;;;;;;;;;;2.66;69.13;100487.80;1700977;83;20521;-77
2022/01/07 09:24:21;;;;;;;;;;;;;;;2.56;70.68;100487.52;1709266;83;20162;-77
2022/01/07 09:26:46;;;;;;;;;;;;;;;2.47;70.63;100486.79;1704844;83;20480;-80
2022/01/07 09:29:12;;;;;;;;;;;;;;;2.44;71.10;100484.37;1709069;81;21148;-79
2022/01/07 09:31:38;;;;;;;;;;;;;;;2.40;71.48;100483.73;1698413;83;20136;-76
2022/01/07 09:34:04;;;;;;;;;;;;;;;2.56;70.31;100485.39;1703978;83;20267;-81
2022/01/07 09:36:29;;;;;;;;;;;;;;;2.51;69.09;100481.77;1702883;83;20166;-86
2022/01/07 09:38:55;;;;;;;;;;;;;;;2.36;69.77;100483.55;1699788;83;20134;-76
2022/01/07 09:41:20;;;;;;;;;;;;;;;2.60;68.98;100484.27;1706391;83;21543;-79
2022/01/07 09:43:46;;;;;;;;;;;;;;;2.67;68.68;100476.41;1701514;83;20628;-77
2022/01/07 09:46:13;;;;;;;;;;;;;;;2.11;68.37;100479.88;1701819;83;20141;-77
2022/01/07 09:48:39;;;;;;;;;;;;;;;2.38;68.58;100473.88;1707765;81;20198;-81
2022/01/07 09:51:04;;;;;;;;;;;;;;;2.29;68.40;100462.25;1696286;83;20117;-79
2022/01/07 09:53:31;;;;;;;;;;;;;;;2.36;67.64;100462.70;1705224;81;21147;-79
2022/01/07 09:55:56;;;;;;;;;;;;;;;2.64;67.87;100463.57;1699351;83;20204;-77
2022/01/07 09:58:22;;;;;;;;;;;;;;;2.44;67.15;100460.47;1695788;83;21054;-78
2022/01/07 10:00:47;;;;;;;;;;;;;;;2.59;67.13;100456.52;1699533;83;20160;-79
2022/01/07 10:03:17;;;;;;;;;;;;;;;2.53;66.46;100459.03;1703547;83;20475;-78
2022/01/07 10:05:45;;;;;;;;;;;;;;;2.34;67.05;100454.14;1711078;81;21245;-77
2022/01/07 10:08:27;;;;;;;;;;;;;;;2.61;67.07;100445.52;1700723;81;20571;-87
2022/01/07 10:11:16;;;;;;;;;;;;;;;2.59;66.40;100437.79;1675555;83;20913;-79
2022/01/07 10:13:43;;;;;;;;;;;;;;;2.62;66.25;100436.77;1705225;83;20511;-80
2022/01/07 10:16:19;;;;;;;;;;;;;;;2.69;65.74;100431.06;1703798;83;20211;-79
2022/01/07 10:18:47;;;;;;;;;;;;;;;2.78;65.65;100436.17;1702453;81;20498;-80
2022/01/07 10:21:13;;;;;;;;;;;;;;;2.93;65.09;100440.02;1700368;82;20152;-76
2022/01/07 10:23:38;;;;;;;;;;;;;;;3.34;65.05;100441.66;1699270;83;20218;-83
2022/01/07 10:26:19;;;;;;;;;;;;;;;3.69;64.41;100442.38;1699215;83;20190;-82
2022/01/07 10:28:45;;;;;;;;;;;;;;;3.23;64.03;100460.19;1700968;83;20209;-77
2022/01/07 10:31:13;;;;;;;;;;;;;;;3.11;64.20;100455.77;1696798;83;21070;-76
2022/01/07 10:33:40;;;;;;;;;;;;;;;2.57;65.29;100464.91;1691028;83;20222;-77
2022/01/07 10:36:09;;;;;;;;;;;;;;;2.95;65.19;100444.66;1697125;81;20364;-76
2022/01/07 10:38:36;;;;;;;;;;;;;;;2.94;65.14;100443.00;1698525;83;20230;-79
2022/01/07 10:41:02;;;;;;;;;;;;;;;3.00;64.52;100439.99;1700912;83;20264;-78
2022/01/07 10:43:32;;;;;;;;;;;;;;;3.17;64.60;100440.16;1667397;83;39364;-79
2022/01/07 10:46:19;;;;;;;;;;;;;;;3.58;64.17;100434.78;1700372;83;20165;-85
2022/01/07 10:48:47;;;;;;;;;;;;;;;3.58;63.96;100438.70;1692659;82;20210;-88
2022/01/07 10:51:14;;;;;;;;;;;;;;;3.45;63.92;100436.58;1674222;84;20770;-77
2022/01/07 10:53:40;;;;;;;;;;;;;;;3.43;63.82;100442.83;1672402;84;20244;-77
2022/01/07 10:56:10;;;;;;;;;;;;;;;3.41;64.26;100428.09;1674105;84;21191;-78
2022/01/07 10:58:49;;;;;;;;;;;;;;;3.46;63.97;100430.39;1671882;84;20777;-75
2022/01/07 11:01:21;;;;;;;;;;;;;;;3.20;63.74;100431.69;1672827;84;20194;-75
2022/01/07 11:03:50;;;;;;;;;;;;;;;3.76;63.26;100429.27;1656412;84;20851;-87
2022/01/07 11:06:15;;;;;;;;;;;;;;;3.37;62.74;100436.23;1674784;84;20179;-83
2022/01/07 11:08:41;;;;;;;;;;;;;;;3.50;62.99;100438.88;1669838;84;21400;-76
2022/01/07 11:11:08;;;;;;;;;;;;;;;3.53;62.84;100436.88;1673520;84;20202;-79
2022/01/07 11:13:35;;;;;;;;;;;;;;;3.82;62.67;100430.61;1672437;84;20165;-78
2022/01/07 11:16:02;;;;;;;;;;;;;;;3.50;62.82;100430.56;1667874;84;20147;-89
2022/01/07 11:18:28;;;;;;;;;;;;;;;3.53;61.95;100429.05;1676767;84;20175;-83
2022/01/07 11:20:57;;;;;;;;;;;;;;;3.77;62.75;100429.62;1671399;84;21005;-80
2022/01/07 11:23:24;;;;;;;;;;;;;;;3.70;61.60;100428.38;1673811;84;20526;-77
2022/01/07 11:26:01;;;;;;;;;;;;;;;3.59;62.00;100432.55;1673195;84;20253;-84
2022/01/07 11:28:27;;;;;;;;;;;;;;;4.04;61.43;100433.87;1675748;84;20217;-87
2022/01/07 11:31:04;;;;;;;;;;;;;;;4.15;60.55;100440.51;1673818;84;20172;-85
2022/01/07 11:33:30;;;;;;;;;;;;;;;4.33;61.06;100435.74;1676296;84;21181;-78
2022/01/07 11:35:56;;;;;;;;;;;;;;;3.86;60.06;100430.29;1670028;84;20345;-76
2022/01/07 11:38:44;;;;;;;;;;;;;;;3.87;60.49;100424.13;1669565;84;20217;-82
2022/01/07 11:41:12;;;;;;;;;;;;;;;4.17;59.62;100412.95;1670812;84;20163;-76
2022/01/07 11:43:40;;;;;;;;;;;;;;;3.99;59.83;100425.04;1668595;84;20158;-77
2022/01/07 11:46:21;;;;;;;;;;;;;;;4.19;59.37;100424.13;1670911;83;21120;-86
2022/01/07 11:48:46;;;;;;;;;;;;;;;4.46;59.55;100430.50;1662450;83;20178;-82
2022/01/07 11:51:14;;;;;;;;;;;;;;;4.11;59.63;100427.28;1694477;83;20162;-79
2022/01/07 11:53:43;;;;;;;;;;;;;;;4.46;59.61;100433.11;1701501;82;20476;-80
2022/01/07 11:56:19;;;;;;;;;;;;;;;4.59;59.35;100424.73;1698488;83;20187;-76
2022/01/07 11:58:56;;;;;;;;;;;;;;;4.42;59.08;100418.58;1695664;83;21316;-83
2022/01/07 12:01:39;;;;;;;;;;;;;;;4.78;59.04;100422.09;1699089;83;20366;-88
2022/01/07 12:04:23;;;;;;;;;;;;;;;4.23;59.39;100410.73;1696840;83;20135;-82
2022/01/07 12:06:50;;;;;;;;;;;;;;;4.63;58.85;100417.03;1703791;81;20938;-88
2022/01/07 12:09:19;;;;;;;;;;;;;;;4.88;58.06;100419.63;1698127;81;20192;-82
2022/01/07 12:11:53;;;;;;;;;;;;;;;4.86;57.17;100419.73;1697141;81;20182;-77
2022/01/07 12:14:24;;;;;;;;;;;;;;;4.61;58.09;100420.21;1695369;83;20500;-80
2022/01/07 12:16:51;;;;;;;;;;;;;;;4.43;58.19;100405.88;1701076;83;20124;-80
2022/01/07 12:19:23;;;;;;;;;;;;;;;4.43;57.70;100404.56;1698821;83;20218;-80
2022/01/07 12:21:53;;;;;;;;;;;;;;;4.95;57.46;100399.43;1699769;83;20288;-81
2022/01/07 12:24:27;;;;;;;;;;;;;;;4.94;56.88;100400.85;1693129;83;21089;-82
2022/01/07 12:27:16;;;;;;;;;;;;;;;5.11;56.64;100396.98;1694668;83;20171;-82
2022/01/07 12:29:43;;;;;;;;;;;;;;;4.81;56.59;100397.83;1698634;83;20282;-78
2022/01/07 12:32:10;;;;;;;;;;;;;;;4.68;55.96;100396.59;1694448;82;20190;-79
2022/01/07 12:34:40;;;;;;;;;;;;;;;4.66;56.34;100404.19;1701757;81;20153;-79
2022/01/07 12:37:06;;;;;;;;;;;;;;;4.78;56.51;100399.36;1702101;83;21857;-81
2022/01/07 12:39:36;;;;;;;;;;;;;;;4.95;56.27;100393.37;1705494;83;20164;-79
2022/01/07 12:42:03;;;;;;;;;;;;;;;4.82;56.63;100386.91;1703617;83;20220;-78
2022/01/07 12:44:37;;;;;;;;;;;;;;;5.10;56.64;100382.25;1696808;83;20261;-81
2022/01/07 12:47:03;;;;;;;;;;;;;;;5.02;56.51;100379.72;1696233;83;20147;-77
2022/01/07 12:49:37;;;;;;;;;;;;;;;5.12;56.09;100380.34;1699440;82;21068;-76
2022/01/07 12:52:05;;;;;;;;;;;;;;;5.14;56.31;100377.97;1699006;83;20170;-79